This is the latest recevied weather packets stored in our database for station/object DL1AIE-13. If no packets are shown the sender has not sent any weather packets the latest 10 day(s).
| Time | Temp. | Humidity | Pressure | Rain* | Wind** | Luminosity | Snow |
|---|---|---|---|---|---|---|---|
| 1777745252 | 22.78° C | 45% | 1016 hPa | 0 mm | - | - | - |
| 1777744649 | 23.33° C | 41% | 1016 hPa | 0 mm | - | - | - |
| 1777744045 | 24.44° C | 38% | 1016.1 hPa | 0 mm | - | - | - |
| 1777743441 | 25° C | 38% | 1016.1 hPa | 0 mm | - | - | - |
| 1777742838 | 25° C | 38% | 1016.2 hPa | 0 mm | - | - | - |
| 1777742254 | 25.56° C | 33% | 1016.3 hPa | 0 mm | - | - | - |
| 1777741650 | 26.11° C | 34% | 1016.2 hPa | 0 mm | - | - | - |
| 1777741047 | 26.11° C | 34% | 1016.2 hPa | 0 mm | - | - | - |
| 1777740443 | 25.56° C | 37% | 1016.3 hPa | 0 mm | - | - | - |
| 1777739839 | 26.11° C | 33% | 1016.4 hPa | 0 mm | - | - | - |
| 1777739255 | 26.67° C | 32% | 1016.6 hPa | 0 mm | - | - | - |
| 1777738651 | 26.11° C | 32% | 1016.8 hPa | 0 mm | - | - | - |
| 1777738047 | 25.56° C | 33% | 1016.9 hPa | 0 mm | - | - | - |
| 1777737444 | 26.11° C | 32% | 1017 hPa | 0 mm | - | - | - |
| 1777736544 | 26.67° C | 32% | 1017.2 hPa | 0 mm | - | - | - |
| 1777735939 | 26.11° C | 33% | 1017.3 hPa | 0 mm | - | - | - |
| 1777735355 | 26.11° C | 31% | 1017.4 hPa | 0 mm | - | - | - |
| 1777734751 | 26.67° C | 32% | 1017.6 hPa | 0 mm | - | - | - |
| 1777734147 | 26.11° C | 33% | 1017.7 hPa | 0 mm | - | - | - |
| 1777733543 | 26.11° C | 32% | 1017.8 hPa | 0 mm | - | - | - |
| 1777732939 | 26.11° C | 33% | 1017.9 hPa | 0 mm | - | - | - |
| 1777732355 | 26.11° C | 32% | 1018.2 hPa | 0 mm | - | - | - |
| 1777731753 | 26.11° C | 31% | 1018.2 hPa | 0 mm | - | - | - |
| 1777731148 | 27.22° C | 29% | 1018.3 hPa | 0 mm | - | - | - |
| 1777730545 | 25.56° C | 29% | 1018.5 hPa | 0 mm | - | - | - |
* Rain latest hour (hover to see other rain measurements)
** Current wind speed in m/s (hover to see current wind gust speed)